Time;durP1;ratioP1;P1;durP2;ratioP2;P2;SDS_P1;SDS_P2;PMS_P1;PMS_P2;Temp;Humidity;BMP_temperature;BMP_pressure;BME280_temperature;BME280_humidity;BME280_pressure;Samples;Min_cycle;Max_cycle;Signal;HPM_P1;HPM_P2
2022/06/20 00:02:25;;;;;;;;;;;25.40;96.20;;;;;;5074042;28;20007;-54
2022/06/20 00:04:52;;;;;;;;;;;25.40;96.20;;;;;;5074005;28;19915;-53
2022/06/20 00:07:18;;;;;;;;;;;25.40;96.20;;;;;;5074261;28;19908;-55
2022/06/20 00:09:43;;;;;;;;;;;25.40;96.20;;;;;;5074234;28;20268;-55
2022/06/20 00:12:14;;;;;;;;;;;25.40;96.20;;;;;;5074271;28;19908;-53
2022/06/20 00:14:40;;;;;;;;;;;25.40;96.20;;;;;;5073943;28;19908;-55
2022/06/20 00:17:10;;;;;;;;;;;25.40;96.20;;;;;;5073784;28;19920;-55
2022/06/20 00:19:35;;;;;;;;;;;25.40;96.20;;;;;;5074164;28;19923;-55
2022/06/20 00:22:01;;;;;;;;;;;25.40;96.20;;;;;;5074525;28;19909;-50
2022/06/20 00:24:27;;;;;;;;;;;25.40;96.20;;;;;;5074112;28;20351;-54
2022/06/20 00:26:53;;;;;;;;;;;25.40;96.20;;;;;;5073696;28;20378;-51
2022/06/20 00:29:19;;;;;;;;;;;25.40;96.20;;;;;;5073992;28;20352;-54
2022/06/20 00:31:44;;;;;;;;;;;25.40;96.20;;;;;;5073743;28;19977;-54
2022/06/20 00:34:10;;;;;;;;;;;25.40;96.20;;;;;;5073687;28;19908;-54
2022/06/20 00:36:35;;;;;;;;;;;25.40;96.20;;;;;;5073918;28;20255;-52
2022/06/20 00:39:01;;;;;;;;;;;25.40;96.20;;;;;;5073942;28;20275;-51
2022/06/20 00:41:28;;;;;;;;;;;25.40;96.20;;;;;;5073646;28;19915;-54
2022/06/20 00:43:55;;;;;;;;;;;25.40;96.20;;;;;;5073642;28;19916;-54
2022/06/20 00:46:25;;;;;;;;;;;25.40;96.20;;;;;;5074159;28;19943;-54
2022/06/20 00:49:03;;;;;;;;;;;25.50;96.20;;;;;;5073356;28;19920;-53
2022/06/20 00:51:39;;;;;;;;;;;25.40;96.20;;;;;;5076930;28;20110;-55
2022/06/20 00:54:14;;;;;;;;;;;25.40;96.20;;;;;;5077714;28;20007;-53
2022/06/20 00:56:53;;;;;;;;;;;25.40;96.20;;;;;;5059629;28;19921;-56
2022/06/20 00:59:25;;;;;;;;;;;25.40;96.20;;;;;;5077331;28;19961;-52
2022/06/20 01:01:50;;;;;;;;;;;25.50;96.40;;;;;;5077583;28;19959;-54
2022/06/20 01:04:22;;;;;;;;;;;25.40;96.20;;;;;;5077290;28;19908;-55
2022/06/20 01:06:51;;;;;;;;;;;25.40;96.20;;;;;;5077806;28;19953;-53
2022/06/20 01:09:19;;;;;;;;;;;25.40;96.20;;;;;;5077421;28;19963;-54
2022/06/20 01:11:48;;;;;;;;;;;25.50;96.20;;;;;;5077383;28;19912;-53
2022/06/20 01:14:22;;;;;;;;;;;25.40;96.20;;;;;;5077325;28;19909;-56
2022/06/20 01:16:48;;;;;;;;;;;25.40;96.10;;;;;;5042616;28;19979;-55
2022/06/20 01:19:20;;;;;;;;;;;25.40;96.10;;;;;;5077256;28;19909;-55
2022/06/20 01:21:46;;;;;;;;;;;25.50;96.20;;;;;;5077050;28;19909;-55
2022/06/20 01:24:31;;;;;;;;;;;25.40;96.10;;;;;;5077185;28;19915;-52
2022/06/20 01:27:15;;;;;;;;;;;25.50;96.40;;;;;;5077038;28;19913;-55
2022/06/20 01:29:41;;;;;;;;;;;25.50;96.20;;;;;;5077033;28;19908;-50
2022/06/20 01:32:06;;;;;;;;;;;25.50;96.20;;;;;;5077000;28;19940;-54
2022/06/20 01:34:32;;;;;;;;;;;25.50;96.20;;;;;;5076912;28;19912;-55
2022/06/20 01:39:45;;;;;;;;;;;25.50;96.20;;;;;;5076718;28;19920;-54
2022/06/20 01:42:21;;;;;;;;;;;25.50;96.20;;;;;;5076824;28;20363;-56
2022/06/20 01:45:01;;;;;;;;;;;25.50;96.20;;;;;;5076835;28;20274;-53
2022/06/20 01:47:27;;;;;;;;;;;25.50;96.20;;;;;;5076346;28;20301;-53
2022/06/20 01:49:54;;;;;;;;;;;25.50;96.20;;;;;;5076674;28;19923;-53
2022/06/20 01:52:23;;;;;;;;;;;25.50;96.20;;;;;;5076594;28;19978;-53
2022/06/20 01:54:51;;;;;;;;;;;25.50;96.10;;;;;;5076521;28;19909;-55
2022/06/20 01:57:17;;;;;;;;;;;25.50;96.20;;;;;;5058471;28;19924;-53
2022/06/20 01:59:43;;;;;;;;;;;25.50;96.10;;;;;;5076077;28;19909;-56
2022/06/20 02:02:09;;;;;;;;;;;25.50;96.10;;;;;;5075451;28;19973;-53
2022/06/20 02:04:35;;;;;;;;;;;25.50;96.10;;;;;;5076258;28;19915;-55
2022/06/20 02:07:02;;;;;;;;;;;25.50;96.10;;;;;;5076385;28;19908;-55
2022/06/20 02:09:27;;;;;;;;;;;25.50;96.10;;;;;;5076022;28;20007;-51
2022/06/20 02:11:53;;;;;;;;;;;25.50;96.10;;;;;;5076256;28;20011;-54
2022/06/20 02:14:24;;;;;;;;;;;25.50;96.10;;;;;;5076284;28;19909;-52
2022/06/20 02:16:55;;;;;;;;;;;25.50;96.10;;;;;;5076106;28;19974;-55
2022/06/20 02:19:25;;;;;;;;;;;25.50;96.10;;;;;;5076102;28;20004;-54
2022/06/20 02:21:53;;;;;;;;;;;25.50;96.10;;;;;;5075746;28;19916;-52
2022/06/20 02:24:20;;;;;;;;;;;25.50;96.10;;;;;;5076359;28;19961;-54
2022/06/20 02:26:49;;;;;;;;;;;25.50;96.10;;;;;;5075759;28;19919;-56
2022/06/20 02:29:22;;;;;;;;;;;25.50;96.10;;;;;;5076007;28;20457;-54
2022/06/20 02:31:50;;;;;;;;;;;25.50;96.10;;;;;;5076218;28;19909;-54
2022/06/20 02:34:16;;;;;;;;;;;25.50;96.10;;;;;;5075593;28;20007;-55
2022/06/20 02:36:42;;;;;;;;;;;25.50;96.10;;;;;;5076062;28;20382;-54
2022/06/20 02:39:07;;;;;;;;;;;25.50;96.10;;;;;;5075475;28;19915;-52
2022/06/20 02:41:34;;;;;;;;;;;25.50;96.10;;;;;;5075749;28;19934;-55
2022/06/20 02:44:07;;;;;;;;;;;25.50;96.10;;;;;;5075610;28;20019;-55
2022/06/20 02:46:33;;;;;;;;;;;25.50;96.10;;;;;;5075782;28;20007;-53
2022/06/20 02:49:01;;;;;;;;;;;25.50;96.10;;;;;;5075208;28;20346;-53
2022/06/20 02:51:29;;;;;;;;;;;25.50;96.10;;;;;;5075154;28;19962;-52
2022/06/20 02:53:57;;;;;;;;;;;25.50;96.10;;;;;;5074984;28;19913;-54
2022/06/20 02:56:25;;;;;;;;;;;25.50;96.10;;;;;;5075151;28;19920;-51
2022/06/20 02:58:52;;;;;;;;;;;25.50;96.10;;;;;;5075263;28;20359;-52
2022/06/20 03:01:20;;;;;;;;;;;25.50;96.10;;;;;;5075597;28;19915;-51
2022/06/20 03:03:48;;;;;;;;;;;25.50;96.10;;;;;;5075226;28;19912;-55
2022/06/20 03:06:31;;;;;;;;;;;25.50;96.10;;;;;;5074928;28;20369;-53
2022/06/20 03:08:57;;;;;;;;;;;25.50;96.10;;;;;;5074832;28;19996;-53
2022/06/20 03:11:25;;;;;;;;;;;25.50;96.10;;;;;;5074770;28;19923;-51
2022/06/20 03:13:51;;;;;;;;;;;25.50;96.10;;;;;;5074856;28;19908;-56
2022/06/20 03:16:17;;;;;;;;;;;25.50;96.10;;;;;;5074605;28;19916;-54
2022/06/20 03:18:44;;;;;;;;;;;25.50;96.00;;;;;;5074937;28;19909;-53
2022/06/20 03:21:09;;;;;;;;;;;25.50;96.00;;;;;;5074697;28;19915;-55
2022/06/20 03:23:35;;;;;;;;;;;25.50;96.00;;;;;;5074898;28;20003;-53
2022/06/20 03:26:03;;;;;;;;;;;25.50;96.10;;;;;;5074743;28;20019;-53
2022/06/20 03:28:30;;;;;;;;;;;25.50;96.00;;;;;;5074751;28;19915;-52
2022/06/20 03:30:57;;;;;;;;;;;25.50;96.00;;;;;;5074683;28;19919;-54
2022/06/20 03:33:22;;;;;;;;;;;25.50;96.00;;;;;;5074478;28;19947;-55
2022/06/20 03:36:13;;;;;;;;;;;25.50;96.00;;;;;;5074480;28;19948;-54
2022/06/20 03:38:39;;;;;;;;;;;25.50;96.00;;;;;;5061976;28;19966;-54
2022/06/20 03:41:05;;;;;;;;;;;25.50;96.00;;;;;;5074297;28;19978;-56
2022/06/20 03:43:32;;;;;;;;;;;25.50;96.00;;;;;;5074409;28;19908;-51
2022/06/20 03:46:02;;;;;;;;;;;25.50;96.00;;;;;;5074215;28;19916;-53
2022/06/20 03:48:29;;;;;;;;;;;25.50;96.00;;;;;;5074059;28;19944;-55
2022/06/20 03:50:58;;;;;;;;;;;25.60;96.00;;;;;;5074616;28;19919;-55
2022/06/20 03:53:29;;;;;;;;;;;25.60;96.00;;;;;;5074330;28;20003;-54
2022/06/20 03:56:01;;;;;;;;;;;25.50;96.00;;;;;;5074017;28;19947;-56
2022/06/20 03:58:35;;;;;;;;;;;25.60;96.00;;;;;;5074097;28;20326;-55
2022/06/20 04:01:07;;;;;;;;;;;25.60;96.00;;;;;;5073875;28;19909;-54
2022/06/20 04:03:44;;;;;;;;;;;25.60;96.00;;;;;;5073828;28;19915;-55
2022/06/20 04:06:21;;;;;;;;;;;25.60;96.00;;;;;;5073968;28;20267;-56
2022/06/20 04:11:36;;;;;;;;;;;25.60;96.00;;;;;;5074276;28;19931;-55
2022/06/20 04:14:05;;;;;;;;;;;25.60;96.00;;;;;;5073504;28;19909;-56
2022/06/20 04:16:41;;;;;;;;;;;25.60;95.90;;;;;;5073893;28;20328;-53
2022/06/20 04:19:10;;;;;;;;;;;25.60;95.90;;;;;;5073850;28;20007;-54
2022/06/20 04:21:39;;;;;;;;;;;25.60;96.00;;;;;;5073641;28;20389;-54
2022/06/20 04:24:11;;;;;;;;;;;25.60;96.00;;;;;;5073976;28;20382;-55
2022/06/20 04:26:46;;;;;;;;;;;25.60;96.00;;;;;;5080084;28;20366;-54
2022/06/20 04:29:25;;;;;;;;;;;25.60;96.00;;;;;;5062955;28;19957;-56
2022/06/20 04:32:00;;;;;;;;;;;25.60;96.00;;;;;;5080390;28;19908;-53
2022/06/20 04:34:39;;;;;;;;;;;25.70;96.00;;;;;;5080253;28;19919;-55
2022/06/20 04:37:10;;;;;;;;;;;25.60;96.00;;;;;;5080279;28;19912;-52
2022/06/20 04:39:49;;;;;;;;;;;25.70;96.00;;;;;;5080843;28;20007;-55
2022/06/20 04:42:21;;;;;;;;;;;25.60;96.00;;;;;;5080444;28;19948;-54
2022/06/20 04:44:49;;;;;;;;;;;25.70;96.00;;;;;;5080286;28;19912;-54
2022/06/20 04:47:26;;;;;;;;;;;25.70;96.00;;;;;;5080637;28;19908;-53
2022/06/20 04:49:52;;;;;;;;;;;25.70;96.00;;;;;;5080172;28;19957;-53
2022/06/20 04:52:19;;;;;;;;;;;25.70;95.90;;;;;;5080397;28;19995;-53
2022/06/20 04:54:44;;;;;;;;;;;25.70;96.00;;;;;;5080374;28;19909;-54
2022/06/20 04:57:12;;;;;;;;;;;25.70;95.90;;;;;;5080239;28;19927;-53
2022/06/20 04:59:38;;;;;;;;;;;25.70;95.90;;;;;;5080278;28;19908;-54
2022/06/20 05:02:06;;;;;;;;;;;25.60;95.90;;;;;;5079762;28;19909;-54
2022/06/20 05:04:34;;;;;;;;;;;25.70;95.90;;;;;;5080202;28;19915;-52
2022/06/20 05:07:02;;;;;;;;;;;25.70;95.90;;;;;;5079763;28;20095;-55
2022/06/20 05:09:32;;;;;;;;;;;25.70;95.90;;;;;;5079966;28;19909;-54
2022/06/20 05:12:21;;;;;;;;;;;25.70;96.00;;;;;;5080275;28;19909;-55
2022/06/20 05:14:49;;;;;;;;;;;25.70;96.00;;;;;;5065907;28;19908;-56
2022/06/20 05:17:18;;;;;;;;;;;25.70;96.00;;;;;;5080168;28;19924;-55
2022/06/20 05:19:46;;;;;;;;;;;25.70;96.00;;;;;;5080001;28;19912;-53
2022/06/20 05:22:17;;;;;;;;;;;25.70;96.00;;;;;;5079941;28;20019;-53
2022/06/20 05:24:44;;;;;;;;;;;25.70;96.00;;;;;;5079997;28;19999;-54
2022/06/20 05:27:21;;;;;;;;;;;25.70;96.00;;;;;;5080011;28;19961;-55
2022/06/20 05:29:47;;;;;;;;;;;25.70;96.00;;;;;;5079299;28;20274;-53
2022/06/20 05:32:15;;;;;;;;;;;25.70;95.90;;;;;;5080219;28;20344;-53
2022/06/20 05:35:05;;;;;;;;;;;25.70;95.90;;;;;;5079485;28;19915;-54
2022/06/20 05:37:37;;;;;;;;;;;25.70;95.90;;;;;;5076864;28;20363;-55
2022/06/20 05:40:13;;;;;;;;;;;25.70;96.00;;;;;;5076231;28;19908;-54
2022/06/20 05:42:39;;;;;;;;;;;25.70;96.00;;;;;;5076294;28;19999;-53
2022/06/20 05:45:23;;;;;;;;;;;25.70;95.90;;;;;;5076569;28;20029;-55
2022/06/20 05:47:53;;;;;;;;;;;25.70;95.90;;;;;;5076025;28;20363;-52
2022/06/20 05:50:23;;;;;;;;;;;25.70;95.90;;;;;;5076022;28;20045;-52
2022/06/20 05:52:50;;;;;;;;;;;25.70;95.90;;;;;;5075751;28;19913;-56
2022/06/20 05:55:24;;;;;;;;;;;25.80;95.90;;;;;;5075710;28;19928;-55
2022/06/20 05:57:50;;;;;;;;;;;25.70;95.90;;;;;;5075935;28;19956;-56
2022/06/20 06:00:22;;;;;;;;;;;25.70;95.90;;;;;;5076090;28;20010;-55
2022/06/20 06:02:47;;;;;;;;;;;25.70;95.90;;;;;;5076066;28;19915;-54
2022/06/20 06:05:16;;;;;;;;;;;25.80;95.90;;;;;;5075917;28;20331;-56
2022/06/20 06:07:42;;;;;;;;;;;25.70;95.90;;;;;;5075708;28;20386;-55
2022/06/20 06:10:21;;;;;;;;;;;25.80;96.00;;;;;;5075773;28;19909;-56
2022/06/20 06:13:01;;;;;;;;;;;25.80;95.90;;;;;;5075544;28;20291;-56
2022/06/20 06:15:33;;;;;;;;;;;25.80;95.80;;;;;;5075639;28;19909;-56
2022/06/20 06:18:00;;;;;;;;;;;25.80;95.70;;;;;;5075275;28;20012;-55
2022/06/20 06:20:27;;;;;;;;;;;25.80;95.70;;;;;;5075715;28;20004;-53
2022/06/20 06:22:56;;;;;;;;;;;25.80;95.80;;;;;;5075499;28;20283;-56
2022/06/20 06:25:32;;;;;;;;;;;25.80;95.80;;;;;;5057529;28;19915;-52
2022/06/20 06:28:01;;;;;;;;;;;25.80;95.80;;;;;;5075129;28;20325;-54
2022/06/20 06:30:26;;;;;;;;;;;25.80;95.80;;;;;;5075294;28;19908;-54
2022/06/20 06:32:55;;;;;;;;;;;25.80;95.80;;;;;;5075218;28;19915;-56
2022/06/20 06:35:24;;;;;;;;;;;25.80;95.80;;;;;;5075493;28;19956;-55
2022/06/20 06:37:52;;;;;;;;;;;25.80;95.80;;;;;;5057481;28;20283;-55
2022/06/20 06:40:35;;;;;;;;;;;25.80;95.80;;;;;;5075390;28;19992;-56
2022/06/20 06:43:21;;;;;;;;;;;25.80;95.80;;;;;;5057594;28;20007;-53
2022/06/20 06:45:48;;;;;;;;;;;25.80;95.80;;;;;;5074310;28;20355;-56
2022/06/20 06:48:17;;;;;;;;;;;25.80;95.90;;;;;;5056804;28;20355;-53
2022/06/20 06:50:42;;;;;;;;;;;25.80;95.90;;;;;;5075287;28;20326;-54
2022/06/20 06:53:14;;;;;;;;;;;25.80;95.90;;;;;;5075208;28;20011;-54
2022/06/20 06:55:41;;;;;;;;;;;25.80;95.90;;;;;;5074842;28;19925;-53
2022/06/20 06:58:17;;;;;;;;;;;25.80;95.90;;;;;;5075119;28;19917;-54
2022/06/20 07:00:45;;;;;;;;;;;25.80;95.90;;;;;;5075040;28;19912;-53
2022/06/20 07:03:31;;;;;;;;;;;25.80;95.90;;;;;;5057038;28;20354;-54
2022/06/20 07:06:11;;;;;;;;;;;25.80;95.90;;;;;;5074519;28;19916;-54
2022/06/20 07:08:52;;;;;;;;;;;25.80;95.90;;;;;;5074644;28;19909;-56
2022/06/20 07:11:21;;;;;;;;;;;25.80;95.90;;;;;;5074708;28;19954;-55
2022/06/20 07:13:49;;;;;;;;;;;25.80;95.90;;;;;;5074787;28;19938;-53
2022/06/20 07:16:28;;;;;;;;;;;25.80;95.90;;;;;;5074364;28;19915;-52
2022/06/20 07:18:55;;;;;;;;;;;25.80;95.90;;;;;;5074434;28;20007;-55
2022/06/20 07:21:22;;;;;;;;;;;25.80;95.90;;;;;;5074575;28;19908;-55
2022/06/20 07:23:55;;;;;;;;;;;25.80;95.90;;;;;;5074373;28;20015;-53
2022/06/20 07:26:22;;;;;;;;;;;25.80;95.90;;;;;;5074317;28;19915;-56
2022/06/20 07:29:03;;;;;;;;;;;25.80;95.90;;;;;;5074107;28;19908;-54
2022/06/20 07:31:31;;;;;;;;;;;25.80;95.90;;;;;;5074360;28;19909;-54
2022/06/20 07:34:02;;;;;;;;;;;25.90;95.90;;;;;;5074335;28;20488;-55
2022/06/20 07:36:32;;;;;;;;;;;25.90;95.90;;;;;;5074245;28;19924;-57
2022/06/20 07:39:03;;;;;;;;;;;25.90;95.90;;;;;;5074051;28;20009;-55
2022/06/20 07:41:28;;;;;;;;;;;25.90;95.90;;;;;;5073923;28;19954;-53
2022/06/20 07:43:59;;;;;;;;;;;25.90;95.90;;;;;;5074190;28;19912;-53
2022/06/20 07:46:46;;;;;;;;;;;25.90;95.90;;;;;;5073776;28;20267;-52
2022/06/20 07:49:16;;;;;;;;;;;25.90;96.00;;;;;;5073794;28;19996;-55
2022/06/20 07:51:42;;;;;;;;;;;25.90;96.00;;;;;;5074286;28;19915;-53
2022/06/20 07:54:17;;;;;;;;;;;25.90;96.00;;;;;;5074316;28;19939;-56
2022/06/20 07:56:48;;;;;;;;;;;25.90;95.90;;;;;;5074050;28;19970;-55
2022/06/20 07:59:19;;;;;;;;;;;25.90;96.00;;;;;;5055836;28;19915;-52
2022/06/20 08:01:51;;;;;;;;;;;25.90;96.00;;;;;;5073872;28;19909;-52
2022/06/20 08:04:20;;;;;;;;;;;25.90;95.90;;;;;;5073634;28;19991;-54
2022/06/20 08:06:57;;;;;;;;;;;25.90;95.90;;;;;;5073723;28;19913;-52
2022/06/20 08:09:29;;;;;;;;;;;25.90;95.90;;;;;;5073475;28;19948;-56
2022/06/20 08:11:57;;;;;;;;;;;25.90;95.90;;;;;;5073930;28;19959;-54
2022/06/20 08:14:23;;;;;;;;;;;25.90;95.90;;;;;;5073910;28;20278;-52
2022/06/20 08:16:51;;;;;;;;;;;25.90;95.80;;;;;;5073903;28;19916;-56
2022/06/20 08:19:17;;;;;;;;;;;25.90;95.80;;;;;;5073508;28;20425;-55
2022/06/20 08:21:45;;;;;;;;;;;25.90;95.80;;;;;;5055702;28;19908;-54
2022/06/20 08:24:14;;;;;;;;;;;25.90;95.80;;;;;;5073797;28;19909;-54
2022/06/20 08:26:43;;;;;;;;;;;26.00;95.90;;;;;;5073780;28;19909;-53
2022/06/20 08:29:12;;;;;;;;;;;26.00;95.90;;;;;;5073463;28;19920;-53
2022/06/20 08:31:45;;;;;;;;;;;26.00;95.90;;;;;;5073420;28;19913;-56
2022/06/20 08:34:14;;;;;;;;;;;25.90;95.90;;;;;;5073725;28;19913;-56
2022/06/20 08:36:47;;;;;;;;;;;26.00;95.90;;;;;;5073381;28;19916;-54
2022/06/20 08:39:15;;;;;;;;;;;26.00;95.90;;;;;;5055768;28;19995;-53
2022/06/20 08:41:43;;;;;;;;;;;26.00;95.90;;;;;;5074034;28;19912;-56
2022/06/20 08:44:24;;;;;;;;;;;26.00;95.90;;;;;;5073710;28;19916;-53
2022/06/20 08:47:01;;;;;;;;;;;26.00;95.80;;;;;;5073597;28;19909;-56
2022/06/20 08:50:05;;;;;;;;;;;26.00;95.80;;;;;;5073212;28;19916;-55
2022/06/20 08:52:30;;;;;;;;;;;26.00;95.70;;;;;;4972242;28;19910;-54
2022/06/20 08:55:15;;;;;;;;;;;26.00;95.70;;;;;;4972176;28;20389;-54
2022/06/20 08:57:59;;;;;;;;;;;26.00;95.70;;;;;;5031983;28;19916;-53
2022/06/20 09:00:25;;;;;;;;;;;26.00;95.70;;;;;;5073470;28;20343;-53
2022/06/20 09:03:11;;;;;;;;;;;26.00;95.80;;;;;;5073207;28;19947;-54
2022/06/20 09:05:45;;;;;;;;;;;26.00;95.80;;;;;;5073319;28;19962;-52
2022/06/20 09:08:28;;;;;;;;;;;26.00;95.80;;;;;;5072962;28;19908;-54
2022/06/20 09:11:12;;;;;;;;;;;26.00;95.80;;;;;;5073502;28;19909;-55
2022/06/20 09:13:50;;;;;;;;;;;26.00;95.80;;;;;;5076771;28;20007;-52
2022/06/20 09:16:22;;;;;;;;;;;26.00;95.70;;;;;;5076951;28;20310;-56
2022/06/20 09:19:06;;;;;;;;;;;26.00;95.70;;;;;;5076796;28;19908;-52
2022/06/20 09:21:52;;;;;;;;;;;26.00;95.70;;;;;;5076216;28;19908;-54
2022/06/20 09:24:35;;;;;;;;;;;26.00;95.70;;;;;;5076674;28;19908;-54
2022/06/20 09:27:06;;;;;;;;;;;26.00;95.80;;;;;;5076156;28;19908;-56
2022/06/20 09:29:38;;;;;;;;;;;26.00;95.80;;;;;;5076495;28;20350;-56
2022/06/20 09:32:22;;;;;;;;;;;26.00;95.80;;;;;;5076573;28;19916;-53
2022/06/20 09:35:10;;;;;;;;;;;26.00;95.80;;;;;;5076222;28;20053;-56
2022/06/20 09:37:45;;;;;;;;;;;26.00;95.70;;;;;;5075619;28;20371;-53
2022/06/20 09:40:13;;;;;;;;;;;26.00;95.60;;;;;;5058783;28;19979;-55
2022/06/20 09:42:57;;;;;;;;;;;26.00;95.70;;;;;;5076645;28;19908;-55
2022/06/20 09:45:41;;;;;;;;;;;26.00;95.70;;;;;;5076212;28;19908;-55
2022/06/20 09:48:13;;;;;;;;;;;26.00;95.70;;;;;;5075934;28;19909;-55
2022/06/20 09:50:50;;;;;;;;;;;26.00;95.80;;;;;;5076131;28;19909;-54
2022/06/20 09:53:16;;;;;;;;;;;26.00;96.00;;;;;;5076486;28;19913;-54
2022/06/20 09:55:53;;;;;;;;;;;26.00;95.80;;;;;;5058059;28;19928;-55
2022/06/20 09:58:22;;;;;;;;;;;26.00;95.80;;;;;;5075760;28;19917;-52
2022/06/20 10:01:06;;;;;;;;;;;26.10;95.80;;;;;;5075796;28;20243;-54
2022/06/20 10:03:37;;;;;;;;;;;26.10;95.80;;;;;;5075650;28;19909;-55
2022/06/20 10:06:15;;;;;;;;;;;26.10;95.70;;;;;;5075930;28;19912;-52
2022/06/20 10:08:46;;;;;;;;;;;26.10;95.70;;;;;;5075900;28;20022;-53
2022/06/20 10:11:18;;;;;;;;;;;26.00;95.70;;;;;;5076114;28;20003;-54
2022/06/20 10:13:49;;;;;;;;;;;26.10;95.70;;;;;;5076376;28;19947;-51
2022/06/20 10:16:30;;;;;;;;;;;26.10;95.60;;;;;;5076004;28;19916;-56
2022/06/20 10:19:01;;;;;;;;;;;26.10;95.70;;;;;;5076106;28;19913;-53
2022/06/20 10:21:37;;;;;;;;;;;26.10;95.70;;;;;;5075786;28;20361;-52
2022/06/20 10:24:23;;;;;;;;;;;26.10;95.70;;;;;;5057113;28;19915;-56
2022/06/20 10:27:21;;;;;;;;;;;26.10;95.80;;;;;;5075734;28;20366;-55
2022/06/20 10:29:46;;;;;;;;;;;26.10;95.80;;;;;;5020150;28;20259;-56
2022/06/20 10:32:17;;;;;;;;;;;26.10;95.80;;;;;;5075629;28;19915;-55
2022/06/20 10:34:58;;;;;;;;;;;26.10;95.70;;;;;;5075611;28;19908;-51
2022/06/20 10:37:30;;;;;;;;;;;26.10;95.70;;;;;;5075500;28;19921;-54
2022/06/20 10:40:14;;;;;;;;;;;26.10;95.70;;;;;;5075687;28;20346;-54
2022/06/20 10:42:39;;;;;;;;;;;26.10;95.60;;;;;;5074967;28;19912;-53
2022/06/20 10:45:14;;;;;;;;;;;26.10;95.70;;;;;;5075001;28;20485;-52
2022/06/20 10:47:55;;;;;;;;;;;26.10;95.80;;;;;;5057545;28;20342;-55
2022/06/20 10:50:31;;;;;;;;;;;26.10;95.80;;;;;;5075086;28;19961;-55
2022/06/20 10:53:15;;;;;;;;;;;26.10;95.70;;;;;;5075305;28;19954;-52
2022/06/20 10:55:40;;;;;;;;;;;26.10;95.70;;;;;;5074979;28;19928;-53
2022/06/20 10:58:11;;;;;;;;;;;26.10;95.70;;;;;;5074692;28;20418;-55
2022/06/20 11:00:41;;;;;;;;;;;26.10;95.60;;;;;;5057343;28;20034;-55
2022/06/20 11:03:23;;;;;;;;;;;26.10;95.70;;;;;;5074551;28;20320;-54
2022/06/20 11:05:57;;;;;;;;;;;26.10;95.70;;;;;;5075016;28;20266;-53
2022/06/20 11:08:29;;;;;;;;;;;26.10;95.70;;;;;;5056560;28;19908;-52
2022/06/20 11:11:18;;;;;;;;;;;26.10;95.70;;;;;;5074829;28;19913;-55
2022/06/20 11:13:50;;;;;;;;;;;26.10;95.80;;;;;;5061262;28;19916;-54
2022/06/20 11:16:21;;;;;;;;;;;26.10;95.80;;;;;;5074698;28;19912;-55
2022/06/20 11:19:06;;;;;;;;;;;26.20;95.80;;;;;;5074887;28;19912;-55
2022/06/20 11:21:40;;;;;;;;;;;26.10;95.80;;;;;;5022642;28;19909;-53
2022/06/20 11:24:08;;;;;;;;;;;26.10;95.80;;;;;;5074298;28;19919;-53
2022/06/20 11:26:47;;;;;;;;;;;26.10;95.80;;;;;;5073836;28;20240;-55
2022/06/20 11:29:18;;;;;;;;;;;26.10;95.80;;;;;;5074341;28;20010;-55
2022/06/20 11:31:56;;;;;;;;;;;26.10;95.70;;;;;;5074463;28;19909;-52
2022/06/20 11:34:40;;;;;;;;;;;26.10;95.80;;;;;;5073995;28;19915;-53
2022/06/20 11:37:08;;;;;;;;;;;26.10;95.70;;;;;;5074177;28;19920;-54
2022/06/20 11:39:39;;;;;;;;;;;26.10;95.70;;;;;;5074209;28;19909;-54
2022/06/20 11:42:16;;;;;;;;;;;26.10;95.60;;;;;;5074721;28;19962;-55
2022/06/20 11:45:11;;;;;;;;;;;26.10;95.70;;;;;;5073969;28;19912;-51
2022/06/20 11:48:02;;;;;;;;;;;26.10;95.60;;;;;;4985109;28;20033;-53
2022/06/20 11:50:37;;;;;;;;;;;26.10;95.60;;;;;;5068590;28;19915;-50
2022/06/20 11:53:21;;;;;;;;;;;26.10;95.70;;;;;;5073915;28;19909;-53
2022/06/20 11:55:47;;;;;;;;;;;26.10;95.70;;;;;;5073578;28;19924;-56
2022/06/20 11:58:27;;;;;;;;;;;26.10;95.70;;;;;;5073853;28;19916;-56
2022/06/20 12:00:55;;;;;;;;;;;26.10;95.70;;;;;;5073642;28;20415;-54
2022/06/20 12:03:39;;;;;;;;;;;26.10;95.70;;;;;;5073896;28;20003;-55
2022/06/20 12:06:17;;;;;;;;;;;26.10;95.70;;;;;;5073576;28;19915;-55
2022/06/20 12:08:49;;;;;;;;;;;26.20;96.00;;;;;;5073158;28;19909;-55
2022/06/20 12:11:17;;;;;;;;;;;26.10;95.80;;;;;;5073632;28;19908;-53
2022/06/20 12:14:01;;;;;;;;;;;26.20;95.80;;;;;;5073614;28;20264;-55
2022/06/20 12:16:45;;;;;;;;;;;26.10;95.80;;;;;;5073328;28;19913;-53
2022/06/20 12:24:40;;;;;;;;;;;26.10;95.80;;;;;;5073625;28;19938;-56
2022/06/20 12:27:13;;;;;;;;;;;26.20;95.80;;;;;;5073434;28;20282;-53
2022/06/20 12:29:39;;;;;;;;;;;26.20;95.80;;;;;;5055460;28;20275;-51
2022/06/20 12:32:10;;;;;;;;;;;26.20;95.80;;;;;;5073156;28;19908;-53
2022/06/20 12:34:39;;;;;;;;;;;26.20;95.80;;;;;;5073101;28;19912;-50
2022/06/20 12:37:18;;;;;;;;;;;26.20;95.80;;;;;;5073479;28;19924;-53
2022/06/20 12:39:46;;;;;;;;;;;26.20;95.80;;;;;;5073307;28;19908;-52
2022/06/20 12:42:37;;;;;;;;;;;26.20;95.80;;;;;;5074005;28;19961;-55
2022/06/20 12:45:18;;;;;;;;;;;26.20;95.80;;;;;;5068089;28;19908;-55
2022/06/20 12:47:46;;;;;;;;;;;26.20;95.80;;;;;;5077203;28;19908;-54
2022/06/20 12:50:28;;;;;;;;;;;26.20;95.80;;;;;;5077351;28;19912;-53
2022/06/20 12:53:16;;;;;;;;;;;26.20;95.80;;;;;;5077902;28;19945;-52
2022/06/20 12:55:52;;;;;;;;;;;26.20;95.80;;;;;;5077424;28;20007;-55
2022/06/20 12:58:20;;;;;;;;;;;26.20;95.80;;;;;;5077070;28;19916;-51
2022/06/20 13:00:49;;;;;;;;;;;26.20;95.90;;;;;;5077016;28;20422;-54
2022/06/20 13:03:50;;;;;;;;;;;26.20;95.80;;;;;;5076929;28;19915;-54
2022/06/20 13:06:23;;;;;;;;;;;26.20;95.80;;;;;;4976022;28;19910;-56
2022/06/20 13:08:59;;;;;;;;;;;26.20;95.90;;;;;;5060982;28;19962;-54
2022/06/20 13:11:36;;;;;;;;;;;26.20;95.90;;;;;;5077120;28;19908;-56
2022/06/20 13:14:05;;;;;;;;;;;26.20;95.90;;;;;;5076843;28;19908;-55
2022/06/20 13:16:48;;;;;;;;;;;26.20;95.80;;;;;;5076501;28;19959;-54
2022/06/20 13:19:21;;;;;;;;;;;26.20;95.90;;;;;;5058862;28;19908;-55
2022/06/20 13:21:54;;;;;;;;;;;26.20;95.90;;;;;;5059044;28;19908;-52
2022/06/20 13:24:22;;;;;;;;;;;26.20;95.90;;;;;;5076882;28;19999;-52
2022/06/20 13:26:55;;;;;;;;;;;26.20;95.90;;;;;;5076678;28;19912;-52
2022/06/20 13:29:21;;;;;;;;;;;26.20;95.90;;;;;;5076284;28;19966;-54
2022/06/20 13:31:57;;;;;;;;;;;26.20;95.90;;;;;;5076669;28;19908;-53
2022/06/20 13:34:31;;;;;;;;;;;26.20;95.90;;;;;;5076538;28;19909;-55
2022/06/20 13:37:01;;;;;;;;;;;26.20;95.90;;;;;;5076727;28;19917;-55
2022/06/20 13:39:44;;;;;;;;;;;26.30;95.90;;;;;;5076532;28;19953;-55
2022/06/20 13:42:28;;;;;;;;;;;26.30;95.90;;;;;;5076513;28;19908;-51
2022/06/20 13:44:56;;;;;;;;;;;26.20;95.90;;;;;;5076224;28;19944;-55
2022/06/20 13:47:28;;;;;;;;;;;26.20;95.90;;;;;;5076145;28;19908;-55
2022/06/20 13:50:12;;;;;;;;;;;26.20;95.90;;;;;;5075827;28;19915;-54
2022/06/20 13:52:46;;;;;;;;;;;26.20;95.90;;;;;;5076145;28;19999;-54
2022/06/20 13:55:18;;;;;;;;;;;26.20;95.90;;;;;;5075956;28;19955;-56
2022/06/20 13:58:02;;;;;;;;;;;26.30;95.90;;;;;;5074920;28;19916;-55
2022/06/20 14:00:30;;;;;;;;;;;26.20;95.90;;;;;;5075819;28;19936;-50
2022/06/20 14:03:13;;;;;;;;;;;26.20;95.90;;;;;;5075606;28;19912;-56
2022/06/20 14:05:39;;;;;;;;;;;26.20;95.90;;;;;;5076065;28;19998;-55
2022/06/20 14:08:15;;;;;;;;;;;26.20;95.90;;;;;;5057833;28;19908;-55
2022/06/20 14:10:49;;;;;;;;;;;26.20;95.90;;;;;;5075904;28;20325;-55
2022/06/20 14:13:34;;;;;;;;;;;26.20;95.90;;;;;;5075883;28;19954;-56
2022/06/20 14:16:15;;;;;;;;;;;26.20;95.90;;;;;;5074739;28;19909;-51
2022/06/20 14:18:45;;;;;;;;;;;26.20;95.90;;;;;;5075551;28;20027;-55
2022/06/20 14:21:11;;;;;;;;;;;26.30;95.90;;;;;;5075955;28;19954;-54
2022/06/20 14:23:37;;;;;;;;;;;26.20;95.90;;;;;;5075829;28;19913;-55
2022/06/20 14:26:04;;;;;;;;;;;26.30;95.90;;;;;;5075311;28;19908;-55
2022/06/20 14:28:32;;;;;;;;;;;26.30;95.90;;;;;;5075710;28;19912;-55
2022/06/20 14:31:04;;;;;;;;;;;26.20;95.90;;;;;;5075272;28;20367;-53
2022/06/20 14:33:33;;;;;;;;;;;26.20;95.90;;;;;;5075582;28;19908;-53
2022/06/20 14:36:03;;;;;;;;;;;26.30;95.90;;;;;;5075338;28;19947;-56
2022/06/20 14:38:47;;;;;;;;;;;26.30;95.90;;;;;;5075454;28;19916;-56
2022/06/20 14:41:40;;;;;;;;;;;26.20;95.90;;;;;;5075105;28;20007;-52
2022/06/20 14:44:24;;;;;;;;;;;26.30;95.90;;;;;;5074955;28;20311;-55
2022/06/20 14:46:58;;;;;;;;;;;26.20;95.90;;;;;;5074963;28;19909;-53
2022/06/20 14:49:45;;;;;;;;;;;26.30;95.90;;;;;;5075540;28;19962;-52
2022/06/20 14:52:17;;;;;;;;;;;26.30;95.90;;;;;;5075228;28;19931;-54
2022/06/20 14:54:42;;;;;;;;;;;26.30;95.90;;;;;;5057091;28;19932;-54
2022/06/20 14:57:46;;;;;;;;;;;26.30;95.80;;;;;;5075129;28;19966;-56
2022/06/20 15:00:14;;;;;;;;;;;26.20;95.70;;;;;;4974116;28;19957;-56